sensor_id;sensor_type;location;lat;lon;timestamp;pressure;altitude;pressure_sealevel;temperature;humidity
70103;BME280;57470;50.034;15.256;2023-10-09T00:00:32;100203.72;;;10.94;94.11
70103;BME280;57470;50.034;15.256;2023-10-09T00:03:04;100204.94;;;11.18;93.96
70103;BME280;57470;50.034;15.256;2023-10-09T00:05:30;100202.28;;;11.18;93.42
70103;BME280;57470;50.034;15.256;2023-10-09T00:08:16;100194.09;;;11.07;93.73
70103;BME280;57470;50.034;15.256;2023-10-09T00:10:44;100191.06;;;11.13;93.04
70103;BME280;57470;50.034;15.256;2023-10-09T00:13:20;100192.31;;;11.22;93.39
70103;BME280;57470;50.034;15.256;2023-10-09T00:15:52;100188.16;;;11.32;93.59
70103;BME280;57470;50.034;15.256;2023-10-09T00:18:19;100171.69;;;10.81;95.67
70103;BME280;57470;50.034;15.256;2023-10-09T00:20:53;100157.00;;;10.74;96.91
70103;BME280;57470;50.034;15.256;2023-10-09T00:23:20;100143.69;;;10.74;96.76
70103;BME280;57470;50.034;15.256;2023-10-09T00:25:51;100147.81;;;10.80;97.30
70103;BME280;57470;50.034;15.256;2023-10-09T00:28:36;100161.41;;;11.19;95.96
70103;BME280;57470;50.034;15.256;2023-10-09T00:31:04;100167.72;;;11.33;94.44
70103;BME280;57470;50.034;15.256;2023-10-09T00:33:35;100163.34;;;11.46;93.60
70103;BME280;57470;50.034;15.256;2023-10-09T00:36:04;100149.31;;;11.00;95.67
70103;BME280;57470;50.034;15.256;2023-10-09T00:38:37;100151.84;;;11.01;95.73
70103;BME280;57470;50.034;15.256;2023-10-09T00:41:05;100147.75;;;10.96;96.23
70103;BME280;57470;50.034;15.256;2023-10-09T00:43:33;100139.91;;;11.08;95.79
70103;BME280;57470;50.034;15.256;2023-10-09T00:46:02;100130.44;;;10.88;96.15
70103;BME280;57470;50.034;15.256;2023-10-09T00:48:51;100123.94;;;10.78;97.03
70103;BME280;57470;50.034;15.256;2023-10-09T00:51:17;100123.97;;;10.93;96.93
70103;BME280;57470;50.034;15.256;2023-10-09T00:53:48;100127.47;;;11.37;95.56
70103;BME280;57470;50.034;15.256;2023-10-09T00:56:17;100110.25;;;10.84;96.91
70103;BME280;57470;50.034;15.256;2023-10-09T00:59:07;100104.75;;;11.17;96.10
70103;BME280;57470;50.034;15.256;2023-10-09T01:01:33;100096.06;;;11.00;96.45
70103;BME280;57470;50.034;15.256;2023-10-09T01:04:31;100086.44;;;10.97;96.37
70103;BME280;57470;50.034;15.256;2023-10-09T01:07:04;100079.88;;;11.03;95.63
70103;BME280;57470;50.034;15.256;2023-10-09T01:09:41;100091.44;;;11.60;93.62
70103;BME280;57470;50.034;15.256;2023-10-09T01:12:10;100083.34;;;11.61;93.76
70103;BME280;57470;50.034;15.256;2023-10-09T01:14:45;100062.78;;;11.49;94.00
70103;BME280;57470;50.034;15.256;2023-10-09T01:17:11;100039.78;;;11.20;94.09
70103;BME280;57470;50.034;15.256;2023-10-09T01:19:43;100030.25;;;11.02;95.59
70103;BME280;57470;50.034;15.256;2023-10-09T01:22:09;100040.56;;;11.36;95.65
70103;BME280;57470;50.034;15.256;2023-10-09T01:24:41;100034.81;;;11.28;94.50
70103;BME280;57470;50.034;15.256;2023-10-09T01:27:07;100022.66;;;10.96;95.84
70103;BME280;57470;50.034;15.256;2023-10-09T01:29:42;100028.06;;;11.37;95.07
70103;BME280;57470;50.034;15.256;2023-10-09T01:32:08;100017.81;;;11.45;94.00
70103;BME280;57470;50.034;15.256;2023-10-09T01:34:43;100010.97;;;11.26;94.53
70103;BME280;57470;50.034;15.256;2023-10-09T01:37:17;99993.25;;;11.40;94.75
70103;BME280;57470;50.034;15.256;2023-10-09T01:39:55;99978.94;;;11.00;95.18
70103;BME280;57470;50.034;15.256;2023-10-09T01:42:24;99975.66;;;11.51;93.87
70103;BME280;57470;50.034;15.256;2023-10-09T01:44:58;99990.41;;;11.43;94.86
70103;BME280;57470;50.034;15.256;2023-10-09T01:47:35;100000.53;;;11.64;93.29
70103;BME280;57470;50.034;15.256;2023-10-09T01:50:07;100004.41;;;11.32;93.89
70103;BME280;57470;50.034;15.256;2023-10-09T01:52:46;100022.91;;;11.76;92.95
70103;BME280;57470;50.034;15.256;2023-10-09T01:55:11;100025.13;;;11.96;91.48
70103;BME280;57470;50.034;15.256;2023-10-09T01:57:56;100010.22;;;11.65;92.12
70103;BME280;57470;50.034;15.256;2023-10-09T02:00:32;100000.16;;;11.56;92.90
70103;BME280;57470;50.034;15.256;2023-10-09T02:03:08;100015.47;;;11.81;92.25
70103;BME280;57470;50.034;15.256;2023-10-09T02:05:38;100022.72;;;12.06;90.88
70103;BME280;57470;50.034;15.256;2023-10-09T02:08:06;100027.72;;;11.98;90.94
70103;BME280;57470;50.034;15.256;2023-10-09T02:10:39;99999.13;;;11.59;92.63
70103;BME280;57470;50.034;15.256;2023-10-09T02:13:07;99970.25;;;11.10;94.28
70103;BME280;57470;50.034;15.256;2023-10-09T02:15:39;99936.56;;;10.82;95.81
70103;BME280;57470;50.034;15.256;2023-10-09T02:18:27;99903.28;;;10.89;95.86
70103;BME280;57470;50.034;15.256;2023-10-09T02:23:31;99956.00;;;11.66;93.61
70103;BME280;57470;50.034;15.256;2023-10-09T02:26:14;99951.94;;;11.47;93.02
70103;BME280;57470;50.034;15.256;2023-10-09T02:29:14;99927.25;;;11.45;94.91
70103;BME280;57470;50.034;15.256;2023-10-09T02:31:44;99915.63;;;11.05;95.94
70103;BME280;57470;50.034;15.256;2023-10-09T02:34:18;99915.03;;;11.14;96.20
70103;BME280;57470;50.034;15.256;2023-10-09T02:36:50;99911.44;;;11.01;96.35
70103;BME280;57470;50.034;15.256;2023-10-09T02:39:24;99913.53;;;11.37;95.29
70103;BME280;57470;50.034;15.256;2023-10-09T02:41:55;99899.56;;;11.06;95.92
70103;BME280;57470;50.034;15.256;2023-10-09T02:44:26;99901.63;;;11.01;95.32
70103;BME280;57470;50.034;15.256;2023-10-09T02:46:52;99890.25;;;10.85;96.42
70103;BME280;57470;50.034;15.256;2023-10-09T02:49:23;99907.88;;;11.28;94.98
70103;BME280;57470;50.034;15.256;2023-10-09T02:51:49;99917.28;;;11.61;93.53
70103;BME280;57470;50.034;15.256;2023-10-09T02:54:18;99907.19;;;11.66;92.81
70103;BME280;57470;50.034;15.256;2023-10-09T02:56:47;99900.63;;;11.31;92.82
70103;BME280;57470;50.034;15.256;2023-10-09T02:59:19;99907.44;;;11.49;93.64
70103;BME280;57470;50.034;15.256;2023-10-09T03:01:48;99894.88;;;11.51;92.81
70103;BME280;57470;50.034;15.256;2023-10-09T03:04:14;99887.16;;;11.19;92.85
70103;BME280;57470;50.034;15.256;2023-10-09T03:06:40;99881.09;;;11.17;93.44
70103;BME280;57470;50.034;15.256;2023-10-09T03:09:19;99871.75;;;11.24;94.18
70103;BME280;57470;50.034;15.256;2023-10-09T03:11:52;99861.28;;;11.21;94.38
70103;BME280;57470;50.034;15.256;2023-10-09T03:14:27;99849.44;;;11.13;94.78
70103;BME280;57470;50.034;15.256;2023-10-09T03:16:54;99856.97;;;11.06;94.63
70103;BME280;57470;50.034;15.256;2023-10-09T03:19:19;99846.34;;;11.33;93.41
70103;BME280;57470;50.034;15.256;2023-10-09T03:21:44;99832.91;;;11.35;93.34
70103;BME280;57470;50.034;15.256;2023-10-09T03:24:12;99818.88;;;11.18;94.01
70103;BME280;57470;50.034;15.256;2023-10-09T03:26:37;99822.88;;;11.25;94.04
70103;BME280;57470;50.034;15.256;2023-10-09T03:29:03;99823.47;;;11.43;93.10
70103;BME280;57470;50.034;15.256;2023-10-09T03:31:32;99816.38;;;11.29;93.42
70103;BME280;57470;50.034;15.256;2023-10-09T03:33:59;99811.63;;;11.35;92.88
70103;BME280;57470;50.034;15.256;2023-10-09T03:36:24;99821.16;;;11.51;92.99
70103;BME280;57470;50.034;15.256;2023-10-09T03:38:52;99817.00;;;11.60;92.57
70103;BME280;57470;50.034;15.256;2023-10-09T03:41:23;99805.88;;;11.41;92.67
70103;BME280;57470;50.034;15.256;2023-10-09T03:43:52;99798.53;;;11.44;92.71
70103;BME280;57470;50.034;15.256;2023-10-09T03:46:17;99789.69;;;11.44;92.58
70103;BME280;57470;50.034;15.256;2023-10-09T03:48:58;99784.59;;;11.53;92.69
70103;BME280;57470;50.034;15.256;2023-10-09T03:51:29;99779.00;;;11.83;91.33
70103;BME280;57470;50.034;15.256;2023-10-09T03:53:55;99773.09;;;11.53;91.73
70103;BME280;57470;50.034;15.256;2023-10-09T03:56:20;99775.81;;;11.78;90.98
70103;BME280;57470;50.034;15.256;2023-10-09T03:58:50;99747.41;;;11.64;90.73
70103;BME280;57470;50.034;15.256;2023-10-09T04:01:17;99748.72;;;11.72;91.47
70103;BME280;57470;50.034;15.256;2023-10-09T04:04:03;99730.91;;;11.59;91.30
70103;BME280;57470;50.034;15.256;2023-10-09T04:06:31;99741.56;;;11.72;90.67
70103;BME280;57470;50.034;15.256;2023-10-09T04:09:04;99732.88;;;11.95;89.91
70103;BME280;57470;50.034;15.256;2023-10-09T04:11:52;99701.88;;;11.17;92.23
70103;BME280;57470;50.034;15.256;2023-10-09T04:14:37;99699.88;;;11.46;92.39
70103;BME280;57470;50.034;15.256;2023-10-09T04:17:12;99695.78;;;11.27;91.97
70103;BME280;57470;50.034;15.256;2023-10-09T04:19:44;99702.63;;;11.32;91.21
70103;BME280;57470;50.034;15.256;2023-10-09T04:22:36;99703.53;;;11.45;91.19
70103;BME280;57470;50.034;15.256;2023-10-09T04:25:07;99691.69;;;11.61;90.84
70103;BME280;57470;50.034;15.256;2023-10-09T04:27:43;99685.50;;;11.36;90.87
70103;BME280;57470;50.034;15.256;2023-10-09T04:30:10;99676.44;;;11.25;91.69
70103;BME280;57470;50.034;15.256;2023-10-09T04:32:41;99680.56;;;11.29;91.40
70103;BME280;57470;50.034;15.256;2023-10-09T04:35:10;99678.06;;;11.91;90.02
70103;BME280;57470;50.034;15.256;2023-10-09T04:37:44;99678.69;;;11.95;89.40
70103;BME280;57470;50.034;15.256;2023-10-09T04:40:17;99673.78;;;12.01;88.02
70103;BME280;57470;50.034;15.256;2023-10-09T04:43:02;99654.72;;;11.82;89.04
70103;BME280;57470;50.034;15.256;2023-10-09T04:45:35;99640.31;;;11.47;89.57
70103;BME280;57470;50.034;15.256;2023-10-09T04:48:19;99648.28;;;11.72;88.84
70103;BME280;57470;50.034;15.256;2023-10-09T04:51:01;99642.78;;;11.62;89.69
70103;BME280;57470;50.034;15.256;2023-10-09T04:53:45;99611.78;;;11.23;91.54
70103;BME280;57470;50.034;15.256;2023-10-09T04:56:13;99586.84;;;11.24;92.25
70103;BME280;57470;50.034;15.256;2023-10-09T04:58:41;99588.88;;;11.34;91.33
70103;BME280;57470;50.034;15.256;2023-10-09T05:01:06;99587.34;;;11.55;90.67
70103;BME280;57470;50.034;15.256;2023-10-09T05:03:39;99599.50;;;11.59;89.57
70103;BME280;57470;50.034;15.256;2023-10-09T05:06:04;99616.28;;;12.10;88.35
70103;BME280;57470;50.034;15.256;2023-10-09T05:08:48;99624.75;;;12.28;87.57
70103;BME280;57470;50.034;15.256;2023-10-09T05:11:15;99609.00;;;12.25;87.03
70103;BME280;57470;50.034;15.256;2023-10-09T05:13:59;99605.88;;;12.31;86.98
70103;BME280;57470;50.034;15.256;2023-10-09T05:16:37;99616.69;;;12.64;85.52
70103;BME280;57470;50.034;15.256;2023-10-09T05:19:13;99623.00;;;12.63;85.18
70103;BME280;57470;50.034;15.256;2023-10-09T05:21:59;99625.16;;;12.82;83.97
70103;BME280;57470;50.034;15.256;2023-10-09T05:24:34;99631.53;;;12.68;84.70
70103;BME280;57470;50.034;15.256;2023-10-09T05:27:09;99622.59;;;12.81;83.72
70103;BME280;57470;50.034;15.256;2023-10-09T05:29:43;99621.81;;;12.67;83.91
70103;BME280;57470;50.034;15.256;2023-10-09T05:32:25;99619.91;;;12.69;83.89
70103;BME280;57470;50.034;15.256;2023-10-09T05:34:55;99604.72;;;12.46;85.09
70103;BME280;57470;50.034;15.256;2023-10-09T05:37:28;99600.94;;;12.61;84.37
70103;BME280;57470;50.034;15.256;2023-10-09T05:40:08;99617.19;;;12.93;83.91
70103;BME280;57470;50.034;15.256;2023-10-09T05:42:44;99616.06;;;12.85;83.61
70103;BME280;57470;50.034;15.256;2023-10-09T05:45:15;99618.63;;;12.86;82.82
70103;BME280;57470;50.034;15.256;2023-10-09T05:47:51;99625.25;;;13.04;82.79
70103;BME280;57470;50.034;15.256;2023-10-09T05:50:22;99627.22;;;12.90;83.38
70103;BME280;57470;50.034;15.256;2023-10-09T05:52:52;99623.00;;;12.98;82.47
70103;BME280;57470;50.034;15.256;2023-10-09T05:55:24;99629.94;;;13.01;82.67
70103;BME280;57470;50.034;15.256;2023-10-09T05:57:54;99623.41;;;13.05;82.50
70103;BME280;57470;50.034;15.256;2023-10-09T06:00:39;99630.16;;;13.22;81.98
70103;BME280;57470;50.034;15.256;2023-10-09T06:03:22;99627.78;;;13.06;83.79
70103;BME280;57470;50.034;15.256;2023-10-09T06:05:53;99621.19;;;12.88;83.89
70103;BME280;57470;50.034;15.256;2023-10-09T06:08:20;99610.94;;;12.70;83.20
70103;BME280;57470;50.034;15.256;2023-10-09T06:11:04;99627.75;;;13.30;82.58
70103;BME280;57470;50.034;15.256;2023-10-09T06:13:57;99630.19;;;13.33;81.80
70103;BME280;57470;50.034;15.256;2023-10-09T06:16:35;99617.59;;;13.11;82.88
70103;BME280;57470;50.034;15.256;2023-10-09T06:19:19;99587.78;;;12.23;86.57
70103;BME280;57470;50.034;15.256;2023-10-09T06:21:44;99589.22;;;12.75;85.11
70103;BME280;57470;50.034;15.256;2023-10-09T06:24:30;99587.00;;;12.45;85.60
70103;BME280;57470;50.034;15.256;2023-10-09T06:27:11;99592.50;;;12.44;87.17
70103;BME280;57470;50.034;15.256;2023-10-09T06:29:37;99592.97;;;12.72;86.21
70103;BME280;57470;50.034;15.256;2023-10-09T06:32:15;99603.03;;;13.04;84.76
70103;BME280;57470;50.034;15.256;2023-10-09T06:34:51;99604.06;;;13.25;84.60
70103;BME280;57470;50.034;15.256;2023-10-09T06:37:40;99579.06;;;13.15;84.21
70103;BME280;57470;50.034;15.256;2023-10-09T06:40:25;99570.31;;;12.78;86.26
70103;BME280;57470;50.034;15.256;2023-10-09T06:43:09;99562.88;;;12.70;87.80
70103;BME280;57470;50.034;15.256;2023-10-09T06:45:47;99531.47;;;12.39;90.15
70103;BME280;57470;50.034;15.256;2023-10-09T06:48:21;99531.31;;;12.64;89.65
70103;BME280;57470;50.034;15.256;2023-10-09T06:51:06;99552.94;;;13.19;88.33
70103;BME280;57470;50.034;15.256;2023-10-09T06:54:01;99554.44;;;12.99;89.13
70103;BME280;57470;50.034;15.256;2023-10-09T06:56:32;99573.22;;;13.43;87.20
70103;BME280;57470;50.034;15.256;2023-10-09T07:01:26;99552.97;;;13.41;87.37
70103;BME280;57470;50.034;15.256;2023-10-09T07:04:07;99563.53;;;13.53;87.07
70103;BME280;57470;50.034;15.256;2023-10-09T07:06:47;99573.97;;;13.57;85.94
70103;BME280;57470;50.034;15.256;2023-10-09T07:09:14;99578.59;;;13.66;86.22
70103;BME280;57470;50.034;15.256;2023-10-09T07:16:50;99578.13;;;13.49;87.96
70103;BME280;57470;50.034;15.256;2023-10-09T07:19:31;99585.75;;;13.65;88.05
70103;BME280;57470;50.034;15.256;2023-10-09T07:22:00;99584.19;;;13.63;87.35
70103;BME280;57470;50.034;15.256;2023-10-09T07:24:29;99583.56;;;13.70;87.91
70103;BME280;57470;50.034;15.256;2023-10-09T07:27:08;99575.44;;;13.83;87.05
70103;BME280;57470;50.034;15.256;2023-10-09T07:29:37;99571.28;;;13.90;87.73
70103;BME280;57470;50.034;15.256;2023-10-09T07:32:19;99560.34;;;13.26;89.63
70103;BME280;57470;50.034;15.256;2023-10-09T07:34:50;99573.84;;;13.69;90.07
70103;BME280;57470;50.034;15.256;2023-10-09T07:37:20;99562.16;;;12.79;92.07
70103;BME280;57470;50.034;15.256;2023-10-09T07:39:50;99573.97;;;13.23;91.84
70103;BME280;57470;50.034;15.256;2023-10-09T07:42:23;99553.47;;;13.00;91.27
70103;BME280;57470;50.034;15.256;2023-10-09T07:44:58;99563.06;;;13.48;91.43
70103;BME280;57470;50.034;15.256;2023-10-09T07:47:36;99565.81;;;13.25;91.46
70103;BME280;57470;50.034;15.256;2023-10-09T07:50:20;99564.72;;;13.72;90.72
70103;BME280;57470;50.034;15.256;2023-10-09T07:52:47;99557.69;;;13.37;89.32
70103;BME280;57470;50.034;15.256;2023-10-09T07:55:15;99563.03;;;13.82;89.43
70103;BME280;57470;50.034;15.256;2023-10-09T07:57:53;99566.09;;;13.77;91.35
70103;BME280;57470;50.034;15.256;2023-10-09T08:00:18;99564.19;;;14.11;90.43
70103;BME280;57470;50.034;15.256;2023-10-09T08:03:02;99559.16;;;13.75;91.28
70103;BME280;57470;50.034;15.256;2023-10-09T08:05:28;99560.19;;;14.06;89.09
70103;BME280;57470;50.034;15.256;2023-10-09T08:08:00;99564.09;;;14.02;87.87
70103;BME280;57470;50.034;15.256;2023-10-09T08:10:44;99577.94;;;14.07;87.39
70103;BME280;57470;50.034;15.256;2023-10-09T08:13:28;99573.31;;;14.20;88.48
70103;BME280;57470;50.034;15.256;2023-10-09T08:16:12;99567.47;;;14.15;88.48
70103;BME280;57470;50.034;15.256;2023-10-09T08:18:45;99569.56;;;14.11;88.26
70103;BME280;57470;50.034;15.256;2023-10-09T08:21:10;99572.91;;;14.24;88.43
70103;BME280;57470;50.034;15.256;2023-10-09T08:23:36;99574.72;;;14.24;89.28
70103;BME280;57470;50.034;15.256;2023-10-09T08:26:17;99575.09;;;14.31;90.65
70103;BME280;57470;50.034;15.256;2023-10-09T08:28:56;99579.53;;;13.98;91.54
70103;BME280;57470;50.034;15.256;2023-10-09T08:31:40;99574.88;;;14.22;90.41
70103;BME280;57470;50.034;15.256;2023-10-09T08:34:15;99574.19;;;13.98;92.10
70103;BME280;57470;50.034;15.256;2023-10-09T08:36:50;99572.00;;;14.03;91.70
70103;BME280;57470;50.034;15.256;2023-10-09T08:39:21;99569.09;;;13.84;94.94
70103;BME280;57470;50.034;15.256;2023-10-09T08:41:54;99564.59;;;13.96;93.01
70103;BME280;57470;50.034;15.256;2023-10-09T08:44:24;99564.13;;;13.79;95.69
70103;BME280;57470;50.034;15.256;2023-10-09T08:46:54;99569.09;;;13.95;94.96
70103;BME280;57470;50.034;15.256;2023-10-09T08:49:19;99563.44;;;14.20;93.95
70103;BME280;57470;50.034;15.256;2023-10-09T08:51:46;99566.47;;;14.27;92.88
70103;BME280;57470;50.034;15.256;2023-10-09T08:54:13;99568.38;;;14.36;93.19
70103;BME280;57470;50.034;15.256;2023-10-09T08:56:41;99566.88;;;14.54;92.83
70103;BME280;57470;50.034;15.256;2023-10-09T08:59:15;99563.47;;;14.52;93.64
70103;BME280;57470;50.034;15.256;2023-10-09T09:01:44;99547.81;;;14.37;92.74
70103;BME280;57470;50.034;15.256;2023-10-09T09:04:09;99560.00;;;14.41;94.13
70103;BME280;57470;50.034;15.256;2023-10-09T09:06:37;99545.06;;;14.27;94.14
70103;BME280;57470;50.034;15.256;2023-10-09T09:09:12;99537.16;;;13.82;97.78
70103;BME280;57470;50.034;15.256;2023-10-09T09:11:41;99552.97;;;14.40;95.19
70103;BME280;57470;50.034;15.256;2023-10-09T09:14:13;99557.28;;;14.52;95.09
70103;BME280;57470;50.034;15.256;2023-10-09T09:16:44;99562.97;;;14.58;95.20
70103;BME280;57470;50.034;15.256;2023-10-09T09:19:14;99568.28;;;14.70;94.90
70103;BME280;57470;50.034;15.256;2023-10-09T09:21:57;99557.00;;;14.66;95.03
70103;BME280;57470;50.034;15.256;2023-10-09T09:24:36;99560.38;;;14.68;94.56
70103;BME280;57470;50.034;15.256;2023-10-09T09:27:03;99557.91;;;14.76;95.05
70103;BME280;57470;50.034;15.256;2023-10-09T09:32:04;99558.41;;;14.70;95.18
70103;BME280;57470;50.034;15.256;2023-10-09T09:34:50;99572.13;;;14.77;95.01
70103;BME280;57470;50.034;15.256;2023-10-09T09:37:23;99566.34;;;14.40;95.86
70103;BME280;57470;50.034;15.256;2023-10-09T09:40:01;99571.59;;;14.19;96.62
70103;BME280;57470;50.034;15.256;2023-10-09T09:42:36;99565.78;;;14.57;95.57
70103;BME280;57470;50.034;15.256;2023-10-09T09:45:03;99574.97;;;14.75;95.82
70103;BME280;57470;50.034;15.256;2023-10-09T09:47:31;99573.84;;;14.46;95.56
70103;BME280;57470;50.034;15.256;2023-10-09T09:50:01;99578.91;;;14.60;95.61
70103;BME280;57470;50.034;15.256;2023-10-09T09:52:36;99567.91;;;14.42;95.63
70103;BME280;57470;50.034;15.256;2023-10-09T09:55:10;99561.97;;;14.27;95.95
70103;BME280;57470;50.034;15.256;2023-10-09T09:57:40;99559.03;;;14.42;96.50
70103;BME280;57470;50.034;15.256;2023-10-09T10:00:09;99559.94;;;14.09;96.88
70103;BME280;57470;50.034;15.256;2023-10-09T10:02:55;99573.03;;;14.23;97.87
70103;BME280;57470;50.034;15.256;2023-10-09T10:05:24;99563.69;;;14.17;97.75
70103;BME280;57470;50.034;15.256;2023-10-09T10:07:58;99570.53;;;13.99;98.35
70103;BME280;57470;50.034;15.256;2023-10-09T10:10:37;99567.28;;;13.84;99.05
70103;BME280;57470;50.034;15.256;2023-10-09T10:13:05;99565.94;;;13.90;99.01
70103;BME280;57470;50.034;15.256;2023-10-09T10:16:07;99566.31;;;13.85;98.88
70103;BME280;57470;50.034;15.256;2023-10-09T10:19:03;99567.28;;;13.62;100.00
70103;BME280;57470;50.034;15.256;2023-10-09T10:21:33;99570.06;;;13.83;99.54
70103;BME280;57470;50.034;15.256;2023-10-09T10:29:34;99574.59;;;14.37;97.60
70103;BME280;57470;50.034;15.256;2023-10-09T10:32:03;99582.44;;;14.06;96.44
70103;BME280;57470;50.034;15.256;2023-10-09T10:37:39;99564.34;;;14.53;96.65
70103;BME280;57470;50.034;15.256;2023-10-09T10:40:29;99548.34;;;14.62;95.25
70103;BME280;57470;50.034;15.256;2023-10-09T10:43:04;99542.94;;;14.10;99.18
70103;BME280;57470;50.034;15.256;2023-10-09T10:45:44;99543.09;;;14.72;96.64
70103;BME280;57470;50.034;15.256;2023-10-09T10:48:10;99544.19;;;14.90;96.64
70103;BME280;57470;50.034;15.256;2023-10-09T10:50:56;99546.28;;;14.87;96.30
70103;BME280;57470;50.034;15.256;2023-10-09T10:53:22;99551.06;;;14.83;95.61
70103;BME280;57470;50.034;15.256;2023-10-09T10:56:00;99548.97;;;15.08;94.83
70103;BME280;57470;50.034;15.256;2023-10-09T10:58:38;99544.25;;;15.00;95.23
70103;BME280;57470;50.034;15.256;2023-10-09T11:01:03;99545.78;;;14.93;95.05
70103;BME280;57470;50.034;15.256;2023-10-09T11:03:52;99543.69;;;14.76;95.87
70103;BME280;57470;50.034;15.256;2023-10-09T11:06:31;99533.41;;;14.81;95.22
70103;BME280;57470;50.034;15.256;2023-10-09T11:09:08;99545.25;;;14.99;95.25
70103;BME280;57470;50.034;15.256;2023-10-09T11:11:36;99538.84;;;14.90;96.58
70103;BME280;57470;50.034;15.256;2023-10-09T11:14:13;99528.78;;;14.83;96.18
70103;BME280;57470;50.034;15.256;2023-10-09T11:16:43;99525.09;;;15.05;96.85
70103;BME280;57470;50.034;15.256;2023-10-09T11:19:11;99528.31;;;14.98;97.30
70103;BME280;57470;50.034;15.256;2023-10-09T11:21:52;99538.34;;;15.27;97.21
70103;BME280;57470;50.034;15.256;2023-10-09T11:24:26;99537.09;;;15.31;96.25
70103;BME280;57470;50.034;15.256;2023-10-09T11:26:53;99527.53;;;15.08;96.64
70103;BME280;57470;50.034;15.256;2023-10-09T11:29:23;99528.84;;;15.44;96.95
70103;BME280;57470;50.034;15.256;2023-10-09T11:32:03;99521.53;;;15.46;96.99
70103;BME280;57470;50.034;15.256;2023-10-09T11:34:32;99521.47;;;15.57;95.23
70103;BME280;57470;50.034;15.256;2023-10-09T11:37:20;99524.63;;;15.51;95.92
70103;BME280;57470;50.034;15.256;2023-10-09T11:39:55;99523.19;;;15.37;96.58
70103;BME280;57470;50.034;15.256;2023-10-09T11:42:26;99529.34;;;15.58;96.20
70103;BME280;57470;50.034;15.256;2023-10-09T11:45:22;99517.56;;;15.50;96.54
70103;BME280;57470;50.034;15.256;2023-10-09T11:47:56;99513.03;;;15.40;97.07
70103;BME280;57470;50.034;15.256;2023-10-09T11:50:44;99520.09;;;15.72;96.11
70103;BME280;57470;50.034;15.256;2023-10-09T11:53:42;99514.56;;;15.64;96.66
70103;BME280;57470;50.034;15.256;2023-10-09T11:56:08;99522.09;;;15.49;97.14
70103;BME280;57470;50.034;15.256;2023-10-09T11:58:39;99513.16;;;15.69;95.84
70103;BME280;57470;50.034;15.256;2023-10-09T12:01:11;99496.09;;;15.70;97.18
70103;BME280;57470;50.034;15.256;2023-10-09T12:03:41;99497.53;;;15.74;96.98
70103;BME280;57470;50.034;15.256;2023-10-09T12:06:08;99495.41;;;15.78;96.38
70103;BME280;57470;50.034;15.256;2023-10-09T12:08:38;99492.91;;;15.96;96.92
70103;BME280;57470;50.034;15.256;2023-10-09T12:11:06;99486.84;;;16.03;95.40
70103;BME280;57470;50.034;15.256;2023-10-09T12:13:35;99487.75;;;15.33;99.66
70103;BME280;57470;50.034;15.256;2023-10-09T12:16:00;99496.31;;;16.07;97.80
70103;BME280;57470;50.034;15.256;2023-10-09T12:18:26;99493.06;;;16.23;96.53
70103;BME280;57470;50.034;15.256;2023-10-09T12:20:53;99490.66;;;16.30;96.01
70103;BME280;57470;50.034;15.256;2023-10-09T12:23:27;99479.19;;;15.89;96.79
70103;BME280;57470;50.034;15.256;2023-10-09T12:25:53;99466.34;;;15.93;96.91
70103;BME280;57470;50.034;15.256;2023-10-09T12:28:22;99465.78;;;15.80;97.33
70103;BME280;57470;50.034;15.256;2023-10-09T12:30:47;99468.38;;;16.10;96.24
70103;BME280;57470;50.034;15.256;2023-10-09T12:33:17;99457.19;;;16.24;95.62
70103;BME280;57470;50.034;15.256;2023-10-09T12:35:44;99465.25;;;16.43;95.65
70103;BME280;57470;50.034;15.256;2023-10-09T12:38:11;99464.94;;;16.46;93.39
70103;BME280;57470;50.034;15.256;2023-10-09T12:40:38;99462.44;;;16.45;93.33
70103;BME280;57470;50.034;15.256;2023-10-09T12:43:06;99472.03;;;16.38;93.76
70103;BME280;57470;50.034;15.256;2023-10-09T12:45:43;99464.41;;;16.33;94.49
70103;BME280;57470;50.034;15.256;2023-10-09T12:48:10;99470.63;;;16.34;94.69
70103;BME280;57470;50.034;15.256;2023-10-09T12:50:36;99465.25;;;16.34;95.39
70103;BME280;57470;50.034;15.256;2023-10-09T12:53:07;99472.88;;;16.29;95.30
70103;BME280;57470;50.034;15.256;2023-10-09T12:55:40;99461.28;;;15.90;96.61
70103;BME280;57470;50.034;15.256;2023-10-09T12:58:10;99466.72;;;15.69;97.42
70103;BME280;57470;50.034;15.256;2023-10-09T13:00:40;99463.59;;;15.54;98.02
70103;BME280;57470;50.034;15.256;2023-10-09T13:03:10;99460.06;;;15.54;97.74
70103;BME280;57470;50.034;15.256;2023-10-09T13:05:45;99461.09;;;15.72;97.72
70103;BME280;57470;50.034;15.256;2023-10-09T13:08:37;99453.06;;;15.72;96.42
70103;BME280;57470;50.034;15.256;2023-10-09T13:11:07;99449.22;;;15.55;97.03
70103;BME280;57470;50.034;15.256;2023-10-09T13:13:37;99439.03;;;15.59;97.01
70103;BME280;57470;50.034;15.256;2023-10-09T13:16:12;99440.78;;;15.39;97.35
70103;BME280;57470;50.034;15.256;2023-10-09T13:18:42;99429.59;;;15.24;97.87
70103;BME280;57470;50.034;15.256;2023-10-09T13:21:19;99417.16;;;14.83;100.00
70103;BME280;57470;50.034;15.256;2023-10-09T13:23:45;99437.13;;;15.40;99.41
70103;BME280;57470;50.034;15.256;2023-10-09T13:26:18;99427.28;;;15.50;98.03
70103;BME280;57470;50.034;15.256;2023-10-09T13:28:48;99417.88;;;14.85;100.00
70103;BME280;57470;50.034;15.256;2023-10-09T13:31:14;99410.00;;;14.21;100.00
70103;BME280;57470;50.034;15.256;2023-10-09T13:33:44;99413.41;;;14.65;100.00
70103;BME280;57470;50.034;15.256;2023-10-09T13:36:10;99420.47;;;14.96;100.00
70103;BME280;57470;50.034;15.256;2023-10-09T13:38:55;99414.53;;;15.33;100.00
70103;BME280;57470;50.034;15.256;2023-10-09T13:41:22;99432.22;;;15.45;100.00